sensor_id;sensor_type;location;lat;lon;timestamp;P1;durP1;ratioP1;P2;durP2;ratioP2
16430;SDS011;8325;49.284;7.238;2023-02-01T05:03:57;10.23;;;5.87;;
16430;SDS011;8325;49.284;7.238;2023-02-01T05:08:09;9.80;;;5.63;;
16430;SDS011;8325;49.284;7.238;2023-02-01T05:12:20;11.43;;;5.60;;
16430;SDS011;8325;49.284;7.238;2023-02-01T05:16:50;13.25;;;5.93;;
16430;SDS011;8325;49.284;7.238;2023-02-01T05:21:02;11.40;;;6.00;;
16430;SDS011;8325;49.284;7.238;2023-02-01T05:25:13;11.25;;;5.78;;
16430;SDS011;8325;49.284;7.238;2023-02-01T05:29:25;10.50;;;6.53;;
16430;SDS011;8325;49.284;7.238;2023-02-01T05:33:36;14.68;;;6.55;;
16430;SDS011;8325;49.284;7.238;2023-02-01T05:37:48;10.95;;;5.80;;
16430;SDS011;8325;49.284;7.238;2023-02-01T05:41:59;11.67;;;5.93;;
16430;SDS011;8325;49.284;7.238;2023-02-01T05:46:11;13.20;;;6.20;;
16430;SDS011;8325;49.284;7.238;2023-02-01T05:50:24;13.68;;;6.35;;
16430;SDS011;8325;49.284;7.238;2023-02-01T05:54:40;13.15;;;6.22;;
16430;SDS011;8325;49.284;7.238;2023-02-01T05:58:52;13.98;;;5.60;;
16430;SDS011;8325;49.284;7.238;2023-02-01T06:03:03;10.05;;;5.07;;
16430;SDS011;8325;49.284;7.238;2023-02-01T06:07:15;11.07;;;4.45;;
16430;SDS011;8325;49.284;7.238;2023-02-01T06:11:27;10.25;;;4.40;;
16430;SDS011;8325;49.284;7.238;2023-02-01T06:15:43;7.10;;;3.72;;
16430;SDS011;8325;49.284;7.238;2023-02-01T06:19:55;8.60;;;3.83;;
16430;SDS011;8325;49.284;7.238;2023-02-01T06:24:07;9.63;;;4.60;;
16430;SDS011;8325;49.284;7.238;2023-02-01T06:28:18;9.73;;;4.97;;
16430;SDS011;8325;49.284;7.238;2023-02-01T06:32:30;10.00;;;5.70;;
16430;SDS011;8325;49.284;7.238;2023-02-01T06:36:42;11.83;;;4.93;;
16430;SDS011;8325;49.284;7.238;2023-02-01T06:40:54;10.77;;;4.90;;
16430;SDS011;8325;49.284;7.238;2023-02-01T06:45:06;11.82;;;4.88;;
16430;SDS011;8325;49.284;7.238;2023-02-01T06:49:18;14.18;;;5.25;;
16430;SDS011;8325;49.284;7.238;2023-02-01T06:53:31;11.95;;;5.00;;
16430;SDS011;8325;49.284;7.238;2023-02-01T06:57:42;9.55;;;4.85;;
16430;SDS011;8325;49.284;7.238;2023-02-01T07:01:54;14.43;;;5.47;;
16430;SDS011;8325;49.284;7.238;2023-02-01T07:06:05;12.63;;;4.90;;
16430;SDS011;8325;49.284;7.238;2023-02-01T07:10:18;10.68;;;4.50;;
16430;SDS011;8325;49.284;7.238;2023-02-01T07:14:29;11.38;;;4.38;;
16430;SDS011;8325;49.284;7.238;2023-02-01T07:18:41;7.67;;;4.60;;
16430;SDS011;8325;49.284;7.238;2023-02-01T07:22:56;17.33;;;5.88;;
16430;SDS011;8325;49.284;7.238;2023-02-01T07:27:08;12.23;;;7.13;;
16430;SDS011;8325;49.284;7.238;2023-02-01T07:31:20;8.77;;;4.43;;
16430;SDS011;8325;49.284;7.238;2023-02-01T07:35:32;12.13;;;4.72;;
16430;SDS011;8325;49.284;7.238;2023-02-01T07:39:44;14.52;;;4.80;;
16430;SDS011;8325;49.284;7.238;2023-02-01T07:43:55;10.23;;;3.90;;
16430;SDS011;8325;49.284;7.238;2023-02-01T07:48:07;12.13;;;3.78;;
16430;SDS011;8325;49.284;7.238;2023-02-01T07:52:19;18.17;;;4.28;;
16430;SDS011;8325;49.284;7.238;2023-02-01T07:56:30;8.27;;;3.70;;
16430;SDS011;8325;49.284;7.238;2023-02-01T08:00:42;7.78;;;3.15;;
16430;SDS011;8325;49.284;7.238;2023-02-01T08:05:12;7.40;;;3.47;;
16430;SDS011;8325;49.284;7.238;2023-02-01T08:09:24;12.68;;;3.10;;
16430;SDS011;8325;49.284;7.238;2023-02-01T08:13:36;9.55;;;3.17;;
16430;SDS011;8325;49.284;7.238;2023-02-01T08:17:48;11.02;;;3.42;;
16430;SDS011;8325;49.284;7.238;2023-02-01T08:22:00;10.65;;;3.33;;
16430;SDS011;8325;49.284;7.238;2023-02-01T08:26:18;11.18;;;3.40;;
16430;SDS011;8325;49.284;7.238;2023-02-01T08:30:32;9.38;;;2.85;;
16430;SDS011;8325;49.284;7.238;2023-02-01T08:34:44;11.45;;;3.58;;
16430;SDS011;8325;49.284;7.238;2023-02-01T08:38:56;8.57;;;2.95;;
16430;SDS011;8325;49.284;7.238;2023-02-01T08:43:07;10.30;;;3.10;;
16430;SDS011;8325;49.284;7.238;2023-02-01T08:47:19;15.05;;;3.50;;
16430;SDS011;8325;49.284;7.238;2023-02-01T08:51:30;10.05;;;2.95;;
16430;SDS011;8325;49.284;7.238;2023-02-01T08:55:42;8.20;;;3.17;;
16430;SDS011;8325;49.284;7.238;2023-02-01T08:59:54;8.45;;;2.70;;
16430;SDS011;8325;49.284;7.238;2023-02-01T09:04:05;8.18;;;2.75;;
16430;SDS011;8325;49.284;7.238;2023-02-01T09:08:17;8.48;;;3.08;;
16430;SDS011;8325;49.284;7.238;2023-02-01T09:12:31;11.60;;;3.05;;
16430;SDS011;8325;49.284;7.238;2023-02-01T09:16:45;10.57;;;2.92;;
16430;SDS011;8325;49.284;7.238;2023-02-01T09:20:56;12.45;;;2.75;;
16430;SDS011;8325;49.284;7.238;2023-02-01T09:25:08;10.33;;;2.87;;
16430;SDS011;8325;49.284;7.238;2023-02-01T09:29:19;7.20;;;2.53;;
16430;SDS011;8325;49.284;7.238;2023-02-01T09:33:31;8.85;;;2.67;;
16430;SDS011;8325;49.284;7.238;2023-02-01T09:37:43;12.00;;;2.90;;
16430;SDS011;8325;49.284;7.238;2023-02-01T09:42:07;10.82;;;2.75;;
16430;SDS011;8325;49.284;7.238;2023-02-01T09:46:28;10.50;;;2.47;;
16430;SDS011;8325;49.284;7.238;2023-02-01T09:50:44;12.55;;;3.03;;
16430;SDS011;8325;49.284;7.238;2023-02-01T09:55:04;10.93;;;3.15;;
16430;SDS011;8325;49.284;7.238;2023-02-01T10:03:58;8.68;;;2.63;;
16430;SDS011;8325;49.284;7.238;2023-02-01T10:17:01;13.30;;;3.20;;
16430;SDS011;8325;49.284;7.238;2023-02-01T10:26:12;11.05;;;2.47;;
16430;SDS011;8325;49.284;7.238;2023-02-01T10:30:31;15.25;;;2.58;;
16430;SDS011;8325;49.284;7.238;2023-02-01T10:39:23;8.52;;;2.47;;
16430;SDS011;8325;49.284;7.238;2023-02-01T10:43:35;12.60;;;3.13;;
16430;SDS011;8325;49.284;7.238;2023-02-01T10:47:48;9.50;;;2.53;;
16430;SDS011;8325;49.284;7.238;2023-02-01T10:52:05;8.32;;;2.90;;
16430;SDS011;8325;49.284;7.238;2023-02-01T10:56:22;10.57;;;2.97;;
16430;SDS011;8325;49.284;7.238;2023-02-01T11:00:41;8.23;;;2.25;;
16430;SDS011;8325;49.284;7.238;2023-02-01T11:05:14;11.98;;;3.10;;
16430;SDS011;8325;49.284;7.238;2023-02-01T11:09:27;8.43;;;2.88;;
16430;SDS011;8325;49.284;7.238;2023-02-01T11:13:39;7.70;;;3.00;;
16430;SDS011;8325;49.284;7.238;2023-02-01T11:17:51;9.02;;;2.47;;
16430;SDS011;8325;49.284;7.238;2023-02-01T11:22:04;10.27;;;3.55;;
16430;SDS011;8325;49.284;7.238;2023-02-01T11:26:21;14.30;;;4.97;;
16430;SDS011;8325;49.284;7.238;2023-02-01T11:30:36;14.05;;;2.97;;
16430;SDS011;8325;49.284;7.238;2023-02-01T11:35:04;9.15;;;2.53;;
16430;SDS011;8325;49.284;7.238;2023-02-01T11:39:18;8.15;;;2.58;;
16430;SDS011;8325;49.284;7.238;2023-02-01T11:43:31;7.57;;;2.00;;
16430;SDS011;8325;49.284;7.238;2023-02-01T11:47:43;13.63;;;4.40;;
16430;SDS011;8325;49.284;7.238;2023-02-01T11:52:16;7.07;;;2.58;;
16430;SDS011;8325;49.284;7.238;2023-02-01T11:56:42;13.10;;;5.82;;
16430;SDS011;8325;49.284;7.238;2023-02-01T12:10:09;6.93;;;2.30;;
16430;SDS011;8325;49.284;7.238;2023-02-01T12:14:34;11.07;;;2.53;;
16430;SDS011;8325;49.284;7.238;2023-02-01T12:18:56;8.48;;;2.42;;
16430;SDS011;8325;49.284;7.238;2023-02-01T12:23:15;9.90;;;2.65;;
16430;SDS011;8325;49.284;7.238;2023-02-01T12:28:13;7.88;;;2.22;;
16430;SDS011;8325;49.284;7.238;2023-02-01T12:32:53;7.90;;;2.38;;
16430;SDS011;8325;49.284;7.238;2023-02-01T12:46:43;9.18;;;2.70;;
16430;SDS011;8325;49.284;7.238;2023-02-01T12:51:10;11.30;;;2.65;;
16430;SDS011;8325;49.284;7.238;2023-02-01T12:55:34;11.27;;;2.30;;
16430;SDS011;8325;49.284;7.238;2023-02-01T12:59:52;7.88;;;2.85;;
16430;SDS011;8325;49.284;7.238;2023-02-01T13:08:30;7.80;;;2.90;;
16430;SDS011;8325;49.284;7.238;2023-02-01T13:12:54;9.20;;;2.90;;
16430;SDS011;8325;49.284;7.238;2023-02-01T13:21:31;9.32;;;2.13;;
16430;SDS011;8325;49.284;7.238;2023-02-01T13:25:48;6.95;;;2.17;;
16430;SDS011;8325;49.284;7.238;2023-02-01T13:30:06;10.13;;;2.17;;
16430;SDS011;8325;49.284;7.238;2023-02-01T13:34:42;6.82;;;1.92;;
16430;SDS011;8325;49.284;7.238;2023-02-01T13:39:14;8.80;;;1.90;;
16430;SDS011;8325;49.284;7.238;2023-02-01T13:43:51;9.25;;;2.72;;
16430;SDS011;8325;49.284;7.238;2023-02-01T13:48:05;7.32;;;2.42;;
16430;SDS011;8325;49.284;7.238;2023-02-01T13:56:51;12.45;;;2.78;;
16430;SDS011;8325;49.284;7.238;2023-02-01T14:09:45;9.07;;;2.30;;
16430;SDS011;8325;49.284;7.238;2023-02-01T14:13:57;10.85;;;2.60;;
16430;SDS011;8325;49.284;7.238;2023-02-01T14:22:51;6.57;;;2.00;;
16430;SDS011;8325;49.284;7.238;2023-02-01T14:31:32;11.15;;;2.28;;
16430;SDS011;8325;49.284;7.238;2023-02-01T14:35:54;8.57;;;2.03;;
16430;SDS011;8325;49.284;7.238;2023-02-01T14:44:26;7.93;;;2.45;;
16430;SDS011;8325;49.284;7.238;2023-02-01T14:48:41;9.43;;;2.40;;
16430;SDS011;8325;49.284;7.238;2023-02-01T14:57:26;7.40;;;1.80;;
16430;SDS011;8325;49.284;7.238;2023-02-01T15:01:39;7.38;;;2.40;;
16430;SDS011;8325;49.284;7.238;2023-02-01T15:06:01;9.27;;;2.17;;
16430;SDS011;8325;49.284;7.238;2023-02-01T15:10:17;8.63;;;2.47;;
16430;SDS011;8325;49.284;7.238;2023-02-01T15:14:30;6.72;;;2.10;;
16430;SDS011;8325;49.284;7.238;2023-02-01T15:18:46;6.47;;;2.00;;
16430;SDS011;8325;49.284;7.238;2023-02-01T15:23:00;5.95;;;2.00;;
16430;SDS011;8325;49.284;7.238;2023-02-01T15:27:13;8.82;;;2.20;;
16430;SDS011;8325;49.284;7.238;2023-02-01T15:31:36;6.22;;;1.98;;
16430;SDS011;8325;49.284;7.238;2023-02-01T15:35:50;7.43;;;2.20;;
16430;SDS011;8325;49.284;7.238;2023-02-01T15:40:20;6.05;;;2.10;;
16430;SDS011;8325;49.284;7.238;2023-02-01T15:44:39;8.10;;;2.70;;
16430;SDS011;8325;49.284;7.238;2023-02-01T15:48:52;10.65;;;2.97;;
16430;SDS011;8325;49.284;7.238;2023-02-01T15:53:05;6.70;;;1.98;;
16430;SDS011;8325;49.284;7.238;2023-02-01T15:57:20;10.95;;;2.40;;
16430;SDS011;8325;49.284;7.238;2023-02-01T16:01:41;4.97;;;1.95;;
16430;SDS011;8325;49.284;7.238;2023-02-01T16:05:57;7.72;;;2.03;;
16430;SDS011;8325;49.284;7.238;2023-02-01T16:11:13;9.60;;;2.28;;
16430;SDS011;8325;49.284;7.238;2023-02-01T16:14:56;8.52;;;2.10;;
16430;SDS011;8325;49.284;7.238;2023-02-01T16:19:08;6.80;;;1.95;;
16430;SDS011;8325;49.284;7.238;2023-02-01T16:23:20;9.15;;;2.10;;
16430;SDS011;8325;49.284;7.238;2023-02-01T16:27:32;9.88;;;2.35;;
16430;SDS011;8325;49.284;7.238;2023-02-01T16:31:43;5.82;;;2.10;;
16430;SDS011;8325;49.284;7.238;2023-02-01T16:35:56;6.45;;;1.83;;
16430;SDS011;8325;49.284;7.238;2023-02-01T16:40:13;7.47;;;2.22;;
16430;SDS011;8325;49.284;7.238;2023-02-01T16:44:26;8.77;;;2.00;;
16430;SDS011;8325;49.284;7.238;2023-02-01T16:48:37;7.95;;;2.83;;
16430;SDS011;8325;49.284;7.238;2023-02-01T16:52:52;7.13;;;2.33;;
16430;SDS011;8325;49.284;7.238;2023-02-01T16:57:04;7.15;;;2.33;;
16430;SDS011;8325;49.284;7.238;2023-02-01T17:01:16;5.80;;;1.90;;
16430;SDS011;8325;49.284;7.238;2023-02-01T17:05:30;7.25;;;1.98;;
16430;SDS011;8325;49.284;7.238;2023-02-01T17:09:43;4.18;;;1.75;;
16430;SDS011;8325;49.284;7.238;2023-02-01T17:13:56;9.05;;;2.33;;
16430;SDS011;8325;49.284;7.238;2023-02-01T17:18:13;7.80;;;2.10;;
16430;SDS011;8325;49.284;7.238;2023-02-01T17:22:27;5.82;;;2.13;;
16430;SDS011;8325;49.284;7.238;2023-02-01T17:26:38;13.77;;;2.80;;
16430;SDS011;8325;49.284;7.238;2023-02-01T17:30:50;7.65;;;2.22;;
16430;SDS011;8325;49.284;7.238;2023-02-01T17:35:02;7.57;;;2.53;;
16430;SDS011;8325;49.284;7.238;2023-02-01T17:39:14;9.25;;;2.95;;
16430;SDS011;8325;49.284;7.238;2023-02-01T17:43:47;8.80;;;2.13;;
16430;SDS011;8325;49.284;7.238;2023-02-01T17:47:59;7.63;;;2.17;;
16430;SDS011;8325;49.284;7.238;2023-02-01T17:52:15;10.05;;;2.40;;
16430;SDS011;8325;49.284;7.238;2023-02-01T17:56:28;4.40;;;2.10;;
16430;SDS011;8325;49.284;7.238;2023-02-01T18:00:40;6.97;;;2.42;;
16430;SDS011;8325;49.284;7.238;2023-02-01T18:04:52;3.50;;;1.95;;
16430;SDS011;8325;49.284;7.238;2023-02-01T18:09:04;7.45;;;2.20;;
16430;SDS011;8325;49.284;7.238;2023-02-01T18:13:16;12.30;;;3.45;;
16430;SDS011;8325;49.284;7.238;2023-02-01T18:17:28;9.70;;;2.67;;
16430;SDS011;8325;49.284;7.238;2023-02-01T18:21:40;10.40;;;2.75;;
16430;SDS011;8325;49.284;7.238;2023-02-01T18:25:53;7.68;;;2.50;;
16430;SDS011;8325;49.284;7.238;2023-02-01T18:30:04;6.82;;;2.60;;
16430;SDS011;8325;49.284;7.238;2023-02-01T18:34:17;8.27;;;2.40;;
16430;SDS011;8325;49.284;7.238;2023-02-01T18:38:32;11.52;;;3.17;;
16430;SDS011;8325;49.284;7.238;2023-02-01T18:42:44;9.90;;;3.55;;
16430;SDS011;8325;49.284;7.238;2023-02-01T18:46:55;13.95;;;2.97;;
16430;SDS011;8325;49.284;7.238;2023-02-01T18:51:11;8.68;;;3.05;;
16430;SDS011;8325;49.284;7.238;2023-02-01T18:55:24;8.35;;;2.97;;
16430;SDS011;8325;49.284;7.238;2023-02-01T18:59:37;8.57;;;2.70;;
16430;SDS011;8325;49.284;7.238;2023-02-01T19:03:48;8.85;;;2.35;;
16430;SDS011;8325;49.284;7.238;2023-02-01T19:08:14;8.20;;;2.72;;
16430;SDS011;8325;49.284;7.238;2023-02-01T19:12:25;8.13;;;2.65;;
16430;SDS011;8325;49.284;7.238;2023-02-01T19:16:37;6.25;;;2.33;;
16430;SDS011;8325;49.284;7.238;2023-02-01T19:20:50;7.07;;;2.35;;
16430;SDS011;8325;49.284;7.238;2023-02-01T19:25:01;7.95;;;2.47;;
16430;SDS011;8325;49.284;7.238;2023-02-01T19:29:13;10.10;;;3.17;;
16430;SDS011;8325;49.284;7.238;2023-02-01T19:33:25;8.75;;;3.00;;
16430;SDS011;8325;49.284;7.238;2023-02-01T19:37:36;9.55;;;3.38;;
16430;SDS011;8325;49.284;7.238;2023-02-01T19:41:51;9.57;;;2.25;;
16430;SDS011;8325;49.284;7.238;2023-02-01T19:46:02;10.48;;;2.70;;
16430;SDS011;8325;49.284;7.238;2023-02-01T19:50:18;7.10;;;2.85;;
16430;SDS011;8325;49.284;7.238;2023-02-01T19:54:31;8.52;;;2.90;;
16430;SDS011;8325;49.284;7.238;2023-02-01T19:58:43;13.05;;;2.92;;
16430;SDS011;8325;49.284;7.238;2023-02-01T20:02:55;7.25;;;2.38;;
16430;SDS011;8325;49.284;7.238;2023-02-01T20:07:06;9.38;;;2.95;;
16430;SDS011;8325;49.284;7.238;2023-02-01T20:11:22;11.27;;;3.15;;
16430;SDS011;8325;49.284;7.238;2023-02-01T20:15:36;9.15;;;3.08;;
16430;SDS011;8325;49.284;7.238;2023-02-01T20:19:47;8.57;;;3.08;;
16430;SDS011;8325;49.284;7.238;2023-02-01T20:23:59;9.88;;;2.67;;
16430;SDS011;8325;49.284;7.238;2023-02-01T20:28:10;8.45;;;2.80;;
16430;SDS011;8325;49.284;7.238;2023-02-01T20:32:22;6.70;;;2.65;;
16430;SDS011;8325;49.284;7.238;2023-02-01T20:36:34;9.68;;;2.97;;
16430;SDS011;8325;49.284;7.238;2023-02-01T20:40:45;9.27;;;2.63;;
16430;SDS011;8325;49.284;7.238;2023-02-01T20:44:57;8.98;;;3.13;;
16430;SDS011;8325;49.284;7.238;2023-02-01T20:49:08;9.18;;;2.75;;
16430;SDS011;8325;49.284;7.238;2023-02-01T20:53:20;9.50;;;2.70;;
16430;SDS011;8325;49.284;7.238;2023-02-01T20:57:37;9.55;;;2.85;;
16430;SDS011;8325;49.284;7.238;2023-02-01T21:01:48;7.90;;;2.47;;
16430;SDS011;8325;49.284;7.238;2023-02-01T21:06:04;7.03;;;2.65;;
16430;SDS011;8325;49.284;7.238;2023-02-01T21:10:16;8.25;;;2.58;;
16430;SDS011;8325;49.284;7.238;2023-02-01T21:14:28;8.85;;;2.33;;
16430;SDS011;8325;49.284;7.238;2023-02-01T21:18:39;8.63;;;2.70;;
16430;SDS011;8325;49.284;7.238;2023-02-01T21:22:51;8.98;;;2.42;;
16430;SDS011;8325;49.284;7.238;2023-02-01T21:27:02;11.52;;;3.17;;
16430;SDS011;8325;49.284;7.238;2023-02-01T21:31:14;9.65;;;2.88;;
16430;SDS011;8325;49.284;7.238;2023-02-01T21:35:27;6.93;;;2.58;;
16430;SDS011;8325;49.284;7.238;2023-02-01T21:39:38;6.88;;;2.67;;
16430;SDS011;8325;49.284;7.238;2023-02-01T21:43:50;13.25;;;3.22;;
16430;SDS011;8325;49.284;7.238;2023-02-01T21:48:01;6.63;;;2.53;;
16430;SDS011;8325;49.284;7.238;2023-02-01T21:52:14;12.15;;;3.05;;
16430;SDS011;8325;49.284;7.238;2023-02-01T21:56:27;7.18;;;2.78;;
16430;SDS011;8325;49.284;7.238;2023-02-01T22:00:39;9.13;;;2.97;;
16430;SDS011;8325;49.284;7.238;2023-02-01T22:04:50;10.65;;;2.83;;
16430;SDS011;8325;49.284;7.238;2023-02-01T22:09:02;11.27;;;3.55;;
16430;SDS011;8325;49.284;7.238;2023-02-01T22:13:15;8.75;;;3.33;;
16430;SDS011;8325;49.284;7.238;2023-02-01T22:17:26;15.93;;;4.00;;
16430;SDS011;8325;49.284;7.238;2023-02-01T22:21:38;10.48;;;3.00;;
16430;SDS011;8325;49.284;7.238;2023-02-01T22:26:01;8.90;;;2.70;;
